Time;durP1;ratioP1;P1;durP2;ratioP2;P2;SDS_P1;SDS_P2;PMS_P1;PMS_P2;Temp;Humidity;BMP_temperature;BMP_pressure;BME280_temperature;BME280_humidity;BME280_pressure;Samples;Min_cycle;Max_cycle;Signal;HPM_P1;HPM_P2
2023/07/02 00:04:56;;;;;;;6.50;4.05;;;;;;;18.64;86.15;99933.94;10458977;28;20127;-69
2023/07/02 00:09:56;;;;;;;8.48;4.18;;;;;;;18.80;85.82;99942.41;10458154;28;20496;-69
2023/07/02 00:14:57;;;;;;;5.25;3.80;;;;;;;18.91;85.76;99947.81;10457865;28;20056;-69
2023/07/02 00:20:02;;;;;;;7.80;4.28;;;;;;;18.51;85.75;99887.56;10458305;28;20182;-69
2023/07/02 00:25:03;;;;;;;9.10;4.25;;;;;;;18.84;86.23;99973.16;10440261;28;20037;-69
2023/07/02 00:30:04;;;;;;;10.15;4.13;;;;;;;18.35;86.37;99910.56;10457998;28;20453;-69
2023/07/02 00:35:05;;;;;;;7.75;4.07;;;;;;;18.55;87.07;99956.81;10457183;28;20048;-69
2023/07/02 00:40:07;;;;;;;7.65;4.18;;;;;;;18.62;87.23;99965.59;10439249;28;20044;-69
2023/07/02 00:45:08;;;;;;;7.05;4.20;;;;;;;18.64;86.95;99968.91;10456907;28;20128;-70
2023/07/02 00:50:10;;;;;;;5.25;3.67;;;;;;;18.32;87.23;99911.84;10457726;28;20044;-69
2023/07/02 00:55:10;;;;;;;20.08;4.95;;;;;;;18.37;86.82;99941.56;10456521;28;20049;-69
2023/07/02 01:00:13;;;;;;;8.20;4.10;;;;;;;18.12;87.41;99917.50;10455491;28;20033;-69
2023/07/02 01:05:15;;;;;;;11.50;4.05;;;;;;;18.16;88.01;99950.97;10438597;28;20048;-68
2023/07/02 01:10:15;;;;;;;4.90;3.70;;;;;;;17.87;88.19;99908.75;10438773;28;20033;-69
2023/07/02 01:15:16;;;;;;;6.22;3.72;;;;;;;18.28;88.17;99985.13;10455476;28;20497;-69
2023/07/02 01:20:17;;;;;;;6.53;3.88;;;;;;;18.17;88.15;99968.72;10455200;28;20056;-69
2023/07/02 01:25:18;;;;;;;7.18;3.80;;;;;;;18.31;88.00;99998.09;10455290;28;20049;-69
2023/07/02 01:30:19;;;;;;;25.17;4.70;;;;;;;17.71;88.21;99916.34;10438202;28;20139;-69
2023/07/02 01:35:20;;;;;;;26.67;5.07;;;;;;;18.02;88.63;99987.94;10455344;28;20489;-69
2023/07/02 01:40:21;;;;;;;16.45;4.65;;;;;;;17.95;89.35;100005.19;10454791;28;20127;-69
2023/07/02 01:45:22;;;;;;;18.42;5.60;;;;;;;17.95;89.58;100008.69;10455684;28;20048;-69
2023/07/02 01:50:23;;;;;;;8.30;4.60;;;;;;;17.83;89.96;99988.16;10454707;28;20040;-70
2023/07/02 01:55:23;;;;;;;8.95;4.07;;;;;;;18.11;89.94;100019.88;10454366;28;20055;-69
2023/07/02 02:00:24;;;;;;;10.88;4.25;;;;;;;18.19;89.33;100017.72;10454056;28;20037;-69
2023/07/02 02:05:25;;;;;;;30.83;5.13;;;;;;;18.08;89.40;99994.28;10454571;28;20040;-69
2023/07/02 02:10:26;;;;;;;7.43;4.18;;;;;;;17.95;89.18;99940.69;10454542;28;20037;-69
2023/07/02 02:15:27;;;;;;;21.58;4.97;;;;;;;18.27;88.86;99964.66;10454518;28;20068;-69
2023/07/02 02:20:28;;;;;;;29.08;5.72;;;;;;;18.82;89.04;100021.03;10454572;28;20099;-69
2023/07/02 02:25:29;;;;;;;8.68;4.20;;;;;;;19.13;88.44;100036.06;10452905;28;20037;-69
2023/07/02 02:30:30;;;;;;;13.68;4.28;;;;;;;18.81;87.31;99893.72;10453597;28;20424;-70
2023/07/02 02:35:31;;;;;;;6.85;3.80;;;;;;;20.40;83.82;100019.22;10436678;28;20044;-70
2023/07/02 02:40:31;;;;;;;6.28;3.72;;;;;;;21.61;79.67;100035.09;10454437;28;20045;-69
2023/07/02 02:45:32;;;;;;;5.20;3.22;;;;;;;22.47;76.41;100021.06;10453900;28;20516;-69
2023/07/02 02:50:33;;;;;;;8.15;3.33;;;;;;;23.23;72.12;99991.13;10453058;28;20405;-69
2023/07/02 02:55:34;;;;;;;7.00;3.17;;;;;;;24.45;68.93;100038.19;10435629;28;20048;-69
2023/07/02 03:00:34;;;;;;;6.00;3.10;;;;;;;25.05;65.53;100021.16;10453389;28;20045;-69
2023/07/02 03:05:35;;;;;;;5.03;2.90;;;;;;;25.87;62.54;100018.34;10453379;28;20036;-70
2023/07/02 03:10:36;;;;;;;5.38;3.00;;;;;;;26.63;59.30;100019.94;10452599;28;20131;-70
2023/07/02 03:15:36;;;;;;;4.15;2.80;;;;;;;26.83;57.69;99983.56;10453315;28;20053;-70
2023/07/02 03:20:37;;;;;;;3.75;2.80;;;;;;;27.37;56.00;100040.91;10454290;28;20119;-69
2023/07/02 03:25:38;;;;;;;4.18;2.53;;;;;;;26.93;56.35;100047.25;10442018;28;20119;-70
2023/07/02 03:30:39;;;;;;;4.65;2.90;;;;;;;26.83;56.50;100023.59;10458801;28;20052;-70
2023/07/02 03:35:39;;;;;;;5.05;2.83;;;;;;;27.56;54.87;100036.38;10457914;28;20041;-71
2023/07/02 03:40:40;;;;;;;5.43;2.88;;;;;;;28.07;53.27;99997.59;10458102;28;20033;-70
2023/07/02 03:45:41;;;;;;;3.75;2.70;;;;;;;29.61;50.74;100047.19;10459103;28;20059;-70
2023/07/02 03:50:42;;;;;;;4.13;2.50;;;;;;;29.76;49.43;100038.72;10457114;28;20563;-71
2023/07/02 03:55:42;;;;;;;5.55;2.80;;;;;;;30.34;47.79;100037.31;10452818;28;20057;-71
2023/07/02 04:00:44;;;;;;;6.70;2.75;;;;;;;30.63;47.38;100043.22;10450413;28;20135;-70
2023/07/02 04:05:44;;;;;;;4.97;2.70;;;;;;;31.03;46.09;100034.38;10451639;28;20094;-71
2023/07/02 04:10:45;;;;;;;3.95;2.47;;;;;;;31.42;45.48;100035.59;10454266;28;20060;-70
2023/07/02 04:15:47;;;;;;;4.00;2.60;;;;;;;31.21;44.73;100022.38;10452012;28;20099;-71
2023/07/02 04:20:47;;;;;;;4.63;2.22;;;;;;;31.31;44.30;100024.03;10454224;28;20132;-71
2023/07/02 04:25:48;;;;;;;6.80;2.10;;;;;;;31.25;44.82;100022.53;10456111;28;20124;-70
2023/07/02 04:30:51;;;;;;;3.90;2.63;;;;;;;31.01;43.74;99995.44;10455547;28;20065;-70
2023/07/02 04:35:52;;;;;;;9.80;3.10;;;;;;;31.35;44.96;100001.19;10452399;28;20040;-70
2023/07/02 04:40:53;;;;;;;4.07;2.47;;;;;;;31.35;43.62;99994.84;10438575;28;20037;-72
2023/07/02 04:45:54;;;;;;;4.05;2.55;;;;;;;31.31;43.82;100013.06;10454808;28;20048;-71
2023/07/02 04:50:55;;;;;;;6.35;2.53;;;;;;;31.13;43.86;100026.66;10456493;28;20136;-70
2023/07/02 04:55:57;;;;;;;5.07;2.70;;;;;;;30.87;44.08;100026.50;10456181;28;20726;-70
2023/07/02 05:00:58;;;;;;;3.83;2.60;;;;;;;30.81;44.55;100024.19;10456325;28;20041;-70
2023/07/02 05:05:58;;;;;;;3.58;2.40;;;;;;;30.48;44.21;100016.13;10456833;28;20562;-70
2023/07/02 05:10:59;;;;;;;7.43;2.50;;;;;;;30.25;45.20;100023.53;10456799;28;20041;-69
2023/07/02 05:16:00;;;;;;;3.55;2.55;;;;;;;29.72;45.96;99994.72;10440069;28;20044;-70
2023/07/02 05:21:00;;;;;;;4.15;2.50;;;;;;;29.32;46.25;100005.31;10428925;28;20091;-70
2023/07/02 05:26:01;;;;;;;13.68;2.72;;;;;;;28.39;48.45;99949.63;10415406;28;20042;-69
2023/07/02 05:31:02;;;;;;;9.38;2.42;;;;;;;28.09;49.76;99948.13;10412904;28;20053;-70
2023/07/02 05:36:03;;;;;;;3.40;2.22;;;;;;;28.47;49.02;100011.03;10413578;28;20414;-71
2023/07/02 05:41:04;;;;;;;10.60;2.90;;;;;;;28.08;49.84;99985.56;10422073;28;20091;-70
2023/07/02 05:46:04;;;;;;;3.33;2.55;;;;;;;28.11;49.77;99974.06;10452863;28;20136;-70
2023/07/02 05:51:05;;;;;;;6.28;2.40;;;;;;;28.17;49.94;99996.66;10452536;28;20043;-70
2023/07/02 05:56:06;;;;;;;10.45;2.75;;;;;;;28.20;49.27;100007.78;10452945;28;20152;-73
2023/07/02 06:01:07;;;;;;;6.35;2.55;;;;;;;28.40;48.97;100012.19;10428893;28;20451;-72
2023/07/02 06:06:08;;;;;;;6.60;2.90;;;;;;;28.31;49.08;99994.00;10451632;28;20048;-73
2023/07/02 06:11:10;;;;;;;4.30;2.70;;;;;;;28.61;49.46;100014.66;10452627;28;20131;-72
2023/07/02 06:16:11;;;;;;;8.18;3.00;;;;;;;28.51;48.55;99982.81;10450527;28;20045;-74
2023/07/02 06:21:11;;;;;;;5.30;2.90;;;;;;;28.63;48.18;99980.44;10453341;28;20041;-74
2023/07/02 06:26:12;;;;;;;5.03;2.63;;;;;;;28.41;48.63;99981.03;10436057;28;20135;-75
2023/07/02 06:31:13;;;;;;;5.47;2.47;;;;;;;28.35;48.41;99954.88;10411101;28;20057;-74
2023/07/02 06:36:14;;;;;;;5.05;2.60;;;;;;;28.61;47.52;99988.13;10411960;28;20574;-75
2023/07/02 06:41:15;;;;;;;4.90;2.50;;;;;;;28.22;47.45;99931.84;10413120;28;20046;-72
2023/07/02 06:46:16;;;;;;;3.53;2.50;;;;;;;28.34;47.89;99922.41;10412219;28;20042;-75
2023/07/02 06:51:18;;;;;;;5.60;2.53;;;;;;;28.81;47.06;99991.66;10411527;28;20482;-73
2023/07/02 06:56:18;;;;;;;7.95;2.70;;;;;;;28.90;47.20;99971.53;10414517;28;20528;-75
2023/07/02 07:01:19;;;;;;;10.18;2.92;;;;;;;28.99;46.33;99968.94;10418547;28;20039;-73
2023/07/02 07:06:20;;;;;;;5.43;2.80;;;;;;;29.10;45.89;99975.06;10419572;28;20045;-75
2023/07/02 07:11:21;;;;;;;5.82;2.72;;;;;;;28.56;45.80;99898.00;10416365;28;20042;-74
2023/07/02 07:16:22;;;;;;;4.38;2.80;;;;;;;29.19;45.18;99958.75;10418108;28;20080;-73
2023/07/02 07:21:23;;;;;;;4.30;2.70;;;;;;;29.54;44.72;99940.84;10418166;28;20047;-80
2023/07/02 07:26:23;;;;;;;7.18;3.20;;;;;;;29.68;43.67;99946.38;10417971;28;20513;-74
2023/07/02 07:31:24;;;;;;;4.85;2.78;;;;;;;29.69;43.05;99940.56;10448862;28;20061;-73
2023/07/02 07:36:25;;;;;;;7.10;3.00;;;;;;;30.03;43.19;99933.81;10459734;28;20081;-73
2023/07/02 07:41:38;;;;;;;7.05;2.55;;;;;;;30.25;41.01;99947.59;10459216;28;20519;-73
2023/07/02 07:46:38;;;;;;;3.03;2.63;;;;;;;29.84;41.67;99925.75;10459192;28;20106;-73
2023/07/02 07:51:39;;;;;;;7.03;2.95;;;;;;;29.63;41.94;99919.09;10458774;28;20033;-74
2023/07/02 07:56:40;;;;;;;3.95;2.72;;;;;;;29.96;42.53;99909.59;10458473;28;20091;-72
2023/07/02 08:01:41;;;;;;;3.78;2.53;;;;;;;30.25;41.27;99912.00;10436581;28;20045;-72
2023/07/02 08:06:42;;;;;;;4.07;2.70;;;;;;;29.93;41.16;99844.50;10456208;28;20152;-73
2023/07/02 08:11:42;;;;;;;8.45;3.17;;;;;;;30.69;41.03;99904.06;10457855;28;20064;-72
2023/07/02 08:16:44;;;;;;;10.20;3.00;;;;;;;30.72;39.66;99903.44;10455201;28;20515;-72
2023/07/02 08:21:45;;;;;;;6.35;2.75;;;;;;;30.68;39.42;99900.53;10458101;28;20049;-72
2023/07/02 08:26:46;;;;;;;3.50;2.47;;;;;;;30.41;39.38;99900.66;10440219;28;20094;-73
2023/07/02 08:31:47;;;;;;;5.03;2.33;;;;;;;30.09;39.54;99866.84;10458409;28;20055;-73
2023/07/02 08:36:48;;;;;;;5.72;2.28;;;;;;;30.36;39.61;99890.63;10456828;28;20037;-73
2023/07/02 08:41:49;;;;;;;4.18;2.40;;;;;;;30.41;38.90;99865.03;10458044;28;20462;-73
2023/07/02 08:46:56;;;;;;;4.35;2.30;;;;;;;30.52;39.38;99893.81;10456722;28;20037;-72
2023/07/02 08:51:57;;;;;;;3.85;2.40;;;;;;;29.75;39.54;99875.59;10439843;28;20048;-74
2023/07/02 08:57:00;;;;;;;3.30;2.10;;;;;;;29.13;39.50;99785.72;10437342;28;20123;-74
2023/07/02 09:02:01;;;;;;;4.13;2.40;;;;;;;29.15;38.53;99684.25;10455132;28;20045;-73
2023/07/02 09:07:08;;;;;;;14.75;2.63;;;;;;;30.42;36.57;99855.69;10457115;28;20041;-73
2023/07/02 09:12:09;;;;;;;5.50;2.50;;;;;;;30.43;38.16;99849.91;10455002;28;20087;-70
2023/07/02 09:17:10;;;;;;;4.88;1.90;;;;;;;30.01;36.63;99733.41;10455572;28;20091;-72
2023/07/02 09:22:11;;;;;;;4.60;1.98;;;;;;;30.99;36.66;99844.09;10453407;28;20529;-73
2023/07/02 09:27:12;;;;;;;3.15;2.30;;;;;;;31.06;36.67;99817.81;10454002;28;20037;-73
2023/07/02 09:32:13;;;;;;;4.15;2.00;;;;;;;31.41;36.31;99822.63;10410530;28;20053;-74
2023/07/02 09:37:14;;;;;;;15.20;2.50;;;;;;;31.64;34.94;99835.09;10412765;28;20064;-73
2023/07/02 09:42:15;;;;;;;3.65;2.00;;;;;;;31.28;35.14;99766.72;10410042;28;20046;-71
2023/07/02 09:47:18;;;;;;;5.05;2.40;;;;;;;31.55;33.23;99809.56;10405824;28;20044;-71
2023/07/02 09:52:20;;;;;;;7.70;2.40;;;;;;;31.71;33.87;99820.88;10374374;28;20048;-71
2023/07/02 09:57:22;;;;;;;7.53;2.20;;;;;;;30.96;34.63;99814.53;10372033;28;20069;-73
2023/07/02 10:02:22;;;;;;;11.70;2.58;;;;;;;30.41;36.15;99823.94;10372063;28;20069;-72
2023/07/02 10:07:28;;;;;;;8.52;2.30;;;;;;;30.00;36.11;99833.94;10370347;28;20474;-72
2023/07/02 10:12:30;;;;;;;11.98;3.17;;;;;;;30.43;36.33;99800.56;10371101;28;20040;-72
2023/07/02 10:17:37;;;;;;;5.67;2.00;;;;;;;31.21;35.16;99822.06;10371811;28;20054;-75
2023/07/02 10:22:53;;;;;;;14.43;2.63;;;;;;;31.46;34.16;99827.97;10372608;28;20418;-73
2023/07/02 10:27:53;;;;;;;7.07;2.30;;;;;;;31.30;33.89;99756.22;10373682;28;20379;-73
2023/07/02 10:32:54;;;;;;;3.00;2.03;;;;;;;32.03;32.87;99816.88;10458903;28;20052;-73
2023/07/02 10:37:55;;;;;;;3.10;2.03;;;;;;;32.13;32.44;99815.72;10462308;28;20124;-72
2023/07/02 10:42:56;;;;;;;4.47;2.25;;;;;;;31.93;31.92;99815.28;10462469;28;20060;-72
2023/07/02 10:47:57;;;;;;;4.93;2.42;;;;;;;31.89;32.79;99803.28;10460120;28;20048;-72
2023/07/02 10:52:58;;;;;;;3.92;1.98;;;;;;;32.08;32.42;99802.19;10459695;28;20051;-73
2023/07/02 10:58:09;;;;;;;3.05;2.08;;;;;;;31.70;32.39;99814.59;10460389;28;20080;-72
2023/07/02 11:03:21;;;;;;;6.70;2.87;;;;;;;30.89;35.48;99747.25;10461794;28;20037;-72
2023/07/02 11:08:24;;;;;;;4.70;2.50;;;;;;;31.36;35.29;99787.91;10460769;28;20033;-72
2023/07/02 11:13:25;;;;;;;4.90;2.10;;;;;;;31.45;33.66;99763.22;10442998;28;20412;-72
2023/07/02 11:18:31;;;;;;;7.13;2.58;;;;;;;32.09;33.98;99782.59;10458999;28;20041;-70
2023/07/02 11:23:35;;;;;;;26.13;3.70;;;;;;;32.08;34.65;99785.69;10459769;28;20041;-72
2023/07/02 11:28:35;;;;;;;5.15;2.70;;;;;;;31.16;35.07;99723.44;10417331;28;20060;-71
2023/07/02 11:33:37;;;;;;;7.70;2.80;;;;;;;31.22;35.42;99776.22;10400541;28;20041;-72
2023/07/02 11:38:38;;;;;;;15.05;2.90;;;;;;;31.19;35.68;99785.09;10418371;28;20049;-72
2023/07/02 11:43:39;;;;;;;10.32;2.45;;;;;;;31.10;36.03;99774.09;10416993;28;20409;-72
2023/07/02 11:48:40;;;;;;;4.63;2.65;;;;;;;31.57;35.96;99771.63;10417820;28;20045;-71
2023/07/02 11:53:40;;;;;;;13.00;2.78;;;;;;;31.96;35.23;99767.91;10417395;28;20110;-72
2023/07/02 11:58:42;;;;;;;6.80;2.30;;;;;;;32.15;34.71;99764.81;10416502;28;20112;-72
2023/07/02 12:03:45;;;;;;;6.82;2.67;;;;;;;32.33;35.25;99762.84;10417635;28;20041;-71
2023/07/02 12:08:45;;;;;;;7.95;2.40;;;;;;;32.49;34.49;99761.22;10417052;28;20461;-72
2023/07/02 12:13:46;;;;;;;5.53;2.83;;;;;;;32.21;34.41;99725.03;10416761;28;20124;-72
2023/07/02 12:18:47;;;;;;;4.30;2.10;;;;;;;32.49;32.69;99761.22;10417191;28;20464;-72
2023/07/02 12:23:47;;;;;;;8.68;2.05;;;;;;;32.64;33.08;99759.06;10417503;28;20060;-72
2023/07/02 12:28:48;;;;;;;16.33;3.83;;;;;;;32.78;33.85;99756.06;10420744;28;20057;-69
2023/07/02 12:33:49;;;;;;;3.47;2.17;;;;;;;32.56;33.56;99724.94;10455844;28;20492;-71
2023/07/02 12:38:50;;;;;;;4.80;2.42;;;;;;;32.44;33.23;99686.31;10457724;28;20044;-73
2023/07/02 12:43:50;;;;;;;5.25;2.28;;;;;;;32.37;32.35;99675.84;10457124;28;20607;-72
2023/07/02 12:48:51;;;;;;;5.07;2.05;;;;;;;32.66;33.45;99730.06;10456617;28;20076;-73
2023/07/02 12:53:52;;;;;;;6.28;2.38;;;;;;;32.45;33.80;99686.00;10455419;28;20527;-71
2023/07/02 12:58:53;;;;;;;4.45;2.10;;;;;;;32.76;33.41;99734.41;10454075;28;20098;-71
2023/07/02 13:03:54;;;;;;;17.95;2.80;;;;;;;32.45;33.34;99663.22;10455542;28;20101;-71
2023/07/02 13:08:55;;;;;;;4.95;2.42;;;;;;;32.89;32.31;99729.81;10438184;28;20052;-71
2023/07/02 13:13:56;;;;;;;5.47;2.33;;;;;;;32.80;32.41;99740.03;10455767;28;20062;-72
2023/07/02 13:18:57;;;;;;;4.20;2.03;;;;;;;32.70;31.60;99731.03;10456251;28;20116;-71
2023/07/02 13:23:57;;;;;;;9.32;3.72;;;;;;;32.59;32.52;99710.53;10455643;28;20033;-72
2023/07/02 13:31:29;;;;;;;7.53;2.50;;;;;;;32.57;32.79;99726.56;10508914;27;20505;-71
2023/07/02 13:36:30;;;;;;;5.57;2.50;;;;;;;32.60;32.96;99731.38;10505240;28;20093;-71
2023/07/02 13:41:30;;;;;;;12.40;2.63;;;;;;;32.50;32.85;99718.03;10504748;28;20045;-70
2023/07/02 13:46:31;;;;;;;5.07;2.20;;;;;;;32.48;32.86;99739.53;10488016;28;20056;-70
2023/07/02 13:51:32;;;;;;;21.75;2.90;;;;;;;32.43;33.60;99717.72;10502128;28;20045;-70
2023/07/02 13:56:33;;;;;;;7.43;2.40;;;;;;;32.32;32.70;99714.50;10504665;28;20065;-69
2023/07/02 14:01:34;;;;;;;13.32;2.38;;;;;;;31.91;33.57;99676.63;10508606;28;20040;-70
2023/07/02 14:06:34;;;;;;;5.88;2.30;;;;;;;32.01;32.52;99707.31;10506696;28;20505;-69
2023/07/02 14:11:38;;;;;;;7.65;2.42;;;;;;;32.04;33.23;99719.59;10510955;28;20510;-70
2023/07/02 14:16:39;;;;;;;15.20;2.90;;;;;;;31.94;33.26;99714.44;10504469;28;20066;-68
2023/07/02 14:21:40;;;;;;;11.15;2.60;;;;;;;31.99;33.60;99717.03;10486828;28;20681;-69
2023/07/02 14:26:41;;;;;;;6.28;2.30;;;;;;;31.83;32.96;99670.81;10488432;28;20044;-69
2023/07/02 14:31:41;;;;;;;4.63;2.60;;;;;;;31.67;33.04;99666.97;10487505;28;20144;-69
2023/07/02 14:36:42;;;;;;;5.65;2.20;;;;;;;31.89;32.25;99709.06;10487617;28;20049;-69
2023/07/02 14:41:43;;;;;;;25.85;14.02;;;;;;;31.78;32.48;99705.88;10482160;28;20119;-69
2023/07/02 14:46:44;;;;;;;6.60;3.40;;;;;;;31.79;32.21;99708.28;10459334;28;20500;-69
2023/07/02 14:51:45;;;;;;;9.27;2.58;;;;;;;31.78;33.47;99703.13;10459389;28;20052;-69
2023/07/02 14:56:45;;;;;;;4.60;2.50;;;;;;;31.68;34.11;99723.50;10459385;28;20040;-69
2023/07/02 15:01:46;;;;;;;4.03;2.38;;;;;;;31.59;33.80;99728.16;10475517;28;20385;-69
2023/07/02 15:06:47;;;;;;;13.32;2.40;;;;;;;31.50;34.44;99721.88;10459194;28;20044;-69
2023/07/02 15:11:47;;;;;;;3.78;2.22;;;;;;;31.42;33.04;99728.19;10459080;28;20036;-69
2023/07/02 15:16:48;;;;;;;4.25;2.35;;;;;;;31.36;32.86;99711.88;10458460;28;20048;-69
2023/07/02 15:21:49;;;;;;;24.80;4.00;;;;;;;31.27;34.38;99721.22;10459235;28;20043;-69
2023/07/02 15:26:50;;;;;;;11.82;2.80;;;;;;;31.08;35.82;99726.97;10458223;28;20076;-70
2023/07/02 15:31:51;;;;;;;4.65;2.40;;;;;;;30.94;36.14;99716.16;10458518;28;20144;-70
2023/07/02 15:36:51;;;;;;;33.42;4.95;;;;;;;30.40;39.23;99664.19;10458048;28;20037;-69
2023/07/02 15:41:52;;;;;;;15.50;3.30;;;;;;;30.26;39.96;99652.53;10444698;28;20041;-69
2023/07/02 15:46:53;;;;;;;19.33;3.50;;;;;;;30.24;40.57;99687.63;10455846;28;20033;-70
2023/07/02 15:51:54;;;;;;;33.17;4.40;;;;;;;30.17;42.20;99720.13;10470789;28;20190;-69
2023/07/02 15:56:55;;;;;;;19.50;3.53;;;;;;;29.34;43.73;99663.00;10472267;28;20045;-68
2023/07/02 16:01:56;;;;;;;22.30;4.30;;;;;;;29.28;45.49;99718.94;10483315;28;20505;-69
2023/07/02 16:06:56;;;;;;;34.55;4.53;;;;;;;28.86;46.76;99715.44;10481427;28;20047;-69
2023/07/02 16:11:57;;;;;;;34.17;4.15;;;;;;;28.52;47.91;99713.94;10498043;28;20043;-69
2023/07/02 16:16:58;;;;;;;25.67;4.40;;;;;;;28.02;49.38;99685.59;10497239;28;20036;-69
2023/07/02 16:21:59;;;;;;;22.08;4.20;;;;;;;27.76;50.60;99714.13;10473813;28;20036;-69
2023/07/02 16:27:03;;;;;;;37.33;5.20;;;;;;;27.51;52.81;99742.59;10456788;28;20098;-69
2023/07/02 16:32:05;;;;;;;50.92;6.20;;;;;;;26.83;54.48;99677.50;10455340;28;20512;-69
2023/07/02 16:37:05;;;;;;;29.25;7.60;;;;;;;26.91;55.11;99752.38;10456362;28;20045;-69
2023/07/02 16:42:07;;;;;;;57.17;10.02;;;;;;;26.41;57.21;99725.34;10455824;28;20041;-69
2023/07/02 16:47:08;;;;;;;38.67;7.28;;;;;;;26.21;57.97;99742.72;10455498;28;20061;-70
2023/07/02 16:52:09;;;;;;;24.30;6.13;;;;;;;25.93;60.34;99741.59;10455755;28;20037;-69
2023/07/02 16:57:09;;;;;;;46.03;6.68;;;;;;;25.79;61.08;99740.59;10455222;28;20492;-69
2023/07/02 17:02:11;;;;;;;51.58;7.00;;;;;;;25.61;62.59;99758.41;10452824;28;20037;-69
2023/07/02 17:07:12;;;;;;;36.30;5.90;;;;;;;25.32;63.35;99767.25;10455052;28;20041;-69
2023/07/02 17:12:18;;;;;;;31.63;5.85;;;;;;;24.97;65.99;99773.63;10454355;28;20045;-69
2023/07/02 17:17:24;;;;;;;19.17;4.13;;;;;;;24.60;63.87;99739.50;10469408;28;20045;-69
2023/07/02 17:22:27;;;;;;;27.17;5.38;;;;;;;24.76;65.02;99794.59;10477325;28;20036;-69
2023/07/02 17:27:31;;;;;;;13.82;4.18;;;;;;;24.49;64.66;99771.28;10465271;28;20095;-69
2023/07/02 17:32:33;;;;;;;15.85;4.53;;;;;;;24.07;65.29;99739.81;10453886;28;20052;-69
2023/07/02 17:37:34;;;;;;;31.92;5.15;;;;;;;24.40;65.61;99802.78;10480352;28;20492;-70
2023/07/02 17:53:13;;;;;;;20.88;7.72;;;;;;;24.23;65.09;99805.78;10495821;28;20048;-69
2023/07/02 17:58:14;;;;;;;40.85;10.52;;;;;;;24.17;65.23;99814.16;10472270;28;20516;-69
2023/07/02 18:03:15;;;;;;;30.90;18.42;;;;;;;24.04;65.39;99810.91;10451808;28;20103;-69
2023/07/02 18:08:15;;;;;;;37.33;25.60;;;;;;;23.93;65.96;99817.41;10453401;28;20045;-69
2023/07/02 18:18:36;;;;;;;52.85;25.67;;;;;;;23.35;66.56;99770.59;10461772;28;20049;-69
2023/07/02 18:23:37;;;;;;;45.00;22.60;;;;;;;23.65;66.51;99827.63;10460853;28;20127;-69
2023/07/02 18:28:38;;;;;;;49.80;21.17;;;;;;;23.57;67.79;99822.72;10460876;28;20084;-70
2023/07/02 18:38:58;;;;;;;112.03;49.40;;;;;;;23.34;68.82;99821.28;10460571;28;20082;-69
2023/07/02 18:43:59;;;;;;;94.22;45.22;;;;;;;23.25;70.11;99822.88;10459931;28;20102;-70
2023/07/02 18:49:00;;;;;;;79.82;41.00;;;;;;;23.13;70.50;99847.47;10460653;28;20131;-69
2023/07/02 18:54:01;;;;;;;76.63;40.22;;;;;;;22.88;71.17;99836.47;10459292;28;20052;-69
2023/07/02 18:59:02;;;;;;;88.97;43.08;;;;;;;22.82;71.73;99849.16;10459751;28;20052;-70
2023/07/02 19:04:04;;;;;;;87.15;43.67;;;;;;;22.61;72.25;99840.06;10460148;28;20139;-69
2023/07/02 19:09:05;;;;;;;74.70;39.25;;;;;;;22.38;72.16;99826.91;10459484;28;20056;-69
2023/07/02 19:24:44;;;;;;;66.13;27.60;;;;;;;22.20;74.04;99857.88;10458938;28;20037;-69
2023/07/02 19:35:08;;;;;;;;;;;;;;;22.25;73.01;99868.72;10458777;28;20037;-69
2023/07/02 19:40:09;;;;;;;39.50;17.40;;;;;;;21.88;74.81;99861.31;10458051;28;19912;-70
2023/07/02 19:45:10;;;;;;;32.17;11.35;;;;;;;21.56;76.29;99837.69;10458204;28;20123;-69
2023/07/02 19:50:11;;;;;;;25.23;8.98;;;;;;;21.38;76.31;99809.13;10458064;28;20139;-69
2023/07/02 19:55:13;;;;;;;33.40;8.43;;;;;;;21.35;76.25;99809.59;10456969;28;20044;-69
2023/07/02 20:00:14;;;;;;;28.08;7.60;;;;;;;21.78;76.81;99880.94;10457398;28;20073;-71
2023/07/02 20:10:46;;;;;;;19.88;6.55;;;;;;;21.78;76.79;99882.84;10458480;28;20529;-71
2023/07/02 20:15:47;;;;;;;18.33;5.40;;;;;;;21.53;77.64;99894.97;10467259;28;20043;-71
2023/07/02 20:20:53;;;;;;;22.90;6.55;;;;;;;20.94;77.54;99822.59;10457093;28;20045;-71
2023/07/02 20:25:54;;;;;;;21.92;7.10;;;;;;;21.09;77.13;99827.38;10471667;28;20037;-71
2023/07/02 20:30:55;;;;;;;19.42;6.10;;;;;;;21.53;77.34;99892.25;10456421;28;20416;-70
2023/07/02 20:35:55;;;;;;;19.15;5.55;;;;;;;21.52;77.77;99900.63;10455357;28;20049;-70
2023/07/02 20:41:03;;;;;;;17.95;6.30;;;;;;;21.36;78.32;99891.50;10454973;28;20048;-71
2023/07/02 20:46:04;;;;;;;11.05;4.88;;;;;;;21.28;78.83;99905.41;10455994;28;20041;-70
2023/07/02 20:51:05;;;;;;;31.70;5.93;;;;;;;21.15;79.01;99906.59;10455411;28;20044;-71
2023/07/02 20:56:06;;;;;;;12.13;5.25;;;;;;;21.03;79.63;99892.34;10455246;28;20408;-71
2023/07/02 21:01:08;;;;;;;21.15;6.10;;;;;;;21.07;80.38;99910.53;10454660;28;20052;-71
2023/07/02 21:06:11;;;;;;;20.92;6.65;;;;;;;20.98;81.34;99912.00;10454527;28;20047;-71
2023/07/02 21:11:11;;;;;;;21.58;6.68;;;;;;;20.85;81.04;99915.88;10453419;28;20049;-71
2023/07/02 21:16:12;;;;;;;28.75;8.90;;;;;;;20.72;80.80;99881.09;10454103;28;20504;-71
2023/07/02 21:21:13;;;;;;;21.00;8.68;;;;;;;20.90;81.09;99910.53;10454676;28;20461;-71
2023/07/02 21:26:14;;;;;;;34.33;10.88;;;;;;;20.86;80.85;99898.59;10454303;28;20041;-71
2023/07/02 21:31:15;;;;;;;23.05;9.80;;;;;;;20.40;81.13;99824.16;10452558;28;20052;-71
2023/07/02 21:36:16;;;;;;;23.77;9.80;;;;;;;20.72;82.25;99897.28;10454367;28;20091;-71
2023/07/02 21:41:16;;;;;;;23.25;9.75;;;;;;;20.29;82.63;99840.19;10454143;28;20114;-71
2023/07/02 21:46:18;;;;;;;22.45;10.05;;;;;;;20.63;82.58;99898.75;10454076;28;20072;-71
2023/07/02 21:51:19;;;;;;;22.17;8.93;;;;;;;20.56;83.15;99865.72;10458988;28;20048;-71
2023/07/02 21:56:25;;;;;;;26.38;10.23;;;;;;;20.64;83.71;99913.88;10462720;28;20127;-71
2023/07/02 22:01:29;;;;;;;21.17;7.28;;;;;;;19.73;84.11;99781.75;10461888;28;20555;-71
2023/07/02 22:06:30;;;;;;;18.60;7.50;;;;;;;20.29;84.92;99917.59;10460473;28;20500;-71
2023/07/02 22:11:31;;;;;;;16.50;5.82;;;;;;;20.24;85.69;99893.22;10461468;28;20045;-70
2023/07/02 22:16:31;;;;;;;13.98;5.35;;;;;;;19.86;85.55;99827.25;10476630;28;20048;-70
2023/07/02 22:21:33;;;;;;;16.23;5.80;;;;;;;20.24;86.14;99895.91;10460653;28;20496;-71
2023/07/02 22:26:33;;;;;;;10.35;5.30;;;;;;;20.26;86.40;99909.97;10461313;28;20067;-70
2023/07/02 22:31:34;;;;;;;11.20;4.70;;;;;;;19.83;86.80;99835.84;10461291;28;20074;-71
2023/07/02 22:36:35;;;;;;;18.20;4.43;;;;;;;20.24;87.03;99901.31;10460724;28;20078;-71
2023/07/02 22:41:36;;;;;;;26.50;5.40;;;;;;;20.29;86.97;99918.41;10459771;28;20044;-71
2023/07/02 22:46:36;;;;;;;12.45;4.53;;;;;;;20.27;86.72;99915.13;10459671;28;20048;-71
2023/07/02 22:51:37;;;;;;;20.60;4.47;;;;;;;19.71;86.37;99832.38;10459446;28;20048;-71
2023/07/02 22:56:38;;;;;;;11.27;4.82;;;;;;;20.07;86.82;99928.22;10459948;28;20044;-71
2023/07/02 23:01:39;;;;;;;17.25;4.18;;;;;;;19.88;87.71;99934.88;10460410;28;20122;-71
2023/07/02 23:06:39;;;;;;;17.80;4.50;;;;;;;19.46;87.88;99862.31;10461413;28;20041;-71
2023/07/02 23:11:40;;;;;;;13.43;4.55;;;;;;;19.83;88.12;99927.47;10459352;28;20107;-71
2023/07/02 23:16:42;;;;;;;12.10;4.40;;;;;;;19.80;88.57;99931.50;10491996;28;20045;-71
2023/07/02 23:21:47;;;;;;;12.38;4.32;;;;;;;19.72;88.67;99922.97;10498735;28;20175;-71
2023/07/02 23:26:48;;;;;;;18.15;4.43;;;;;;;19.73;88.52;99932.66;10498731;28;20484;-71
2023/07/02 23:31:49;;;;;;;13.48;4.50;;;;;;;19.71;88.69;99924.00;10499530;28;20044;-71
2023/07/02 23:36:50;;;;;;;10.60;4.20;;;;;;;19.66;88.67;99916.66;10462030;28;20451;-71
2023/07/02 23:41:51;;;;;;;10.93;4.25;;;;;;;19.69;88.98;99932.34;10458725;28;20049;-71
2023/07/02 23:46:51;;;;;;;16.48;4.18;;;;;;;19.27;89.19;99897.47;10458183;28;20033;-71
2023/07/02 23:51:52;;;;;;;15.75;4.75;;;;;;;18.98;89.56;99858.03;10457025;28;20045;-71
2023/07/02 23:56:53;;;;;;;19.00;4.72;;;;;;;19.54;89.52;99927.41;10456684;28;20067;-71
